createdAt,value
2018-09-24T00:00:44.498Z,0.53
2018-09-24T00:03:15.050Z,0.53
2018-09-24T00:05:45.320Z,0.50
2018-09-24T00:08:15.794Z,0.50
2018-09-24T00:10:46.149Z,0.73
2018-09-24T00:13:16.673Z,0.70
2018-09-24T00:15:46.941Z,0.80
2018-09-24T00:18:17.427Z,0.40
2018-09-24T00:20:47.994Z,0.70
2018-09-24T00:23:18.584Z,0.50
2018-09-24T00:25:49.028Z,0.47
2018-09-24T00:28:19.568Z,0.30
2018-09-24T00:30:50.044Z,0.40
2018-09-24T00:33:20.663Z,1.37
2018-09-24T00:35:50.776Z,2.43
2018-09-24T00:38:21.074Z,0.60
2018-09-24T00:40:51.453Z,0.50
2018-09-24T00:43:22.111Z,0.40
2018-09-24T00:45:52.430Z,0.40
2018-09-24T00:48:22.726Z,0.57
2018-09-24T00:50:53.174Z,2.20
2018-09-24T00:53:23.634Z,0.73
2018-09-24T00:55:54.104Z,0.70
2018-09-24T00:58:24.588Z,0.30
2018-09-24T01:00:55.176Z,0.30
2018-09-24T01:03:25.487Z,0.30
2018-09-24T01:05:55.976Z,0.30
2018-09-24T01:08:33.337Z,0.30
2018-09-24T01:11:03.832Z,0.30
2018-09-24T01:13:34.397Z,0.33
2018-09-24T01:16:04.739Z,0.30
2018-09-24T01:18:35.175Z,0.50
2018-09-24T01:21:05.847Z,0.30
2018-09-24T01:23:36.381Z,0.33
2018-09-24T01:26:06.997Z,0.30
2018-09-24T01:28:37.440Z,0.37
2018-09-24T01:31:08.320Z,0.40
2018-09-24T01:33:38.815Z,0.30
2018-09-24T01:36:09.436Z,0.30
2018-09-24T01:38:39.904Z,0.50
2018-09-24T01:41:10.316Z,0.40
2018-09-24T01:43:40.805Z,0.30
2018-09-24T01:46:11.331Z,0.50
2018-09-24T01:48:41.829Z,0.30
2018-09-24T01:51:12.317Z,0.50
2018-09-24T01:53:42.773Z,0.30
2018-09-24T01:56:13.186Z,0.40
2018-09-24T01:58:43.559Z,0.50
2018-09-24T02:01:14.057Z,0.33
2018-09-24T02:03:45.115Z,0.40
2018-09-24T02:06:15.599Z,0.43
2018-09-24T02:08:46.035Z,0.30
2018-09-24T02:11:16.469Z,0.37
2018-09-24T02:13:52.202Z,0.40
2018-09-24T02:16:22.709Z,0.30
2018-09-24T02:18:57.508Z,0.40
2018-09-24T02:21:28.082Z,0.40
2018-09-24T02:24:06.335Z,0.40
2018-09-24T02:26:36.908Z,0.40
2018-09-24T02:29:07.265Z,0.50
2018-09-24T02:31:42.163Z,0.50
2018-09-24T02:34:13.243Z,0.50
2018-09-24T02:36:43.701Z,0.33
2018-09-24T02:46:16.261Z,0.30
2018-09-24T02:48:46.793Z,0.30
2018-09-24T02:51:17.378Z,0.40
2018-09-24T02:53:54.475Z,0.30
2018-09-24T02:56:24.881Z,0.30
2018-09-24T02:58:55.377Z,0.40
2018-09-24T03:01:28.074Z,0.30
2018-09-24T03:04:05.027Z,0.50
2018-09-24T03:06:37.275Z,0.50
2018-09-24T03:09:12.601Z,0.40
2018-09-24T03:11:43.392Z,0.50
2018-09-24T03:14:13.745Z,0.40
2018-09-24T03:16:44.242Z,0.50
2018-09-24T03:19:14.974Z,0.47
2018-09-24T03:21:45.335Z,0.50
2018-09-24T03:24:15.588Z,0.40
2018-09-24T03:26:46.284Z,0.60
2018-09-24T03:29:24.522Z,0.50
2018-09-24T03:31:54.944Z,0.60
2018-09-24T03:34:25.413Z,0.50
2018-09-24T03:36:56.059Z,0.40
2018-09-24T03:39:26.612Z,0.60
2018-09-24T03:41:57.190Z,0.40
2018-09-24T03:44:27.688Z,0.43
2018-09-24T03:46:58.238Z,0.40
2018-09-24T03:49:28.664Z,0.53
2018-09-24T03:51:59.147Z,0.40
2018-09-24T03:54:29.846Z,0.60
2018-09-24T03:57:00.311Z,0.47
2018-09-24T03:59:30.822Z,0.40
2018-09-24T04:02:01.405Z,0.40
2018-09-24T04:04:36.937Z,0.60
2018-09-24T04:07:12.211Z,0.40
2018-09-24T04:09:47.720Z,0.43
2018-09-24T04:12:23.282Z,0.30
2018-09-24T04:14:58.825Z,0.40
2018-09-24T04:17:34.228Z,0.83
2018-09-24T04:20:09.736Z,0.40
2018-09-24T04:22:45.032Z,0.30
2018-09-24T04:25:20.290Z,0.30
2018-09-24T04:27:55.479Z,0.30
2018-09-24T04:30:30.866Z,0.30
2018-09-24T04:33:06.421Z,0.40
2018-09-24T04:35:41.831Z,0.40
2018-09-24T04:38:17.169Z,0.30
2018-09-24T04:40:52.597Z,0.30
2018-09-24T04:43:28.089Z,0.50
2018-09-24T04:46:03.601Z,0.43
2018-09-24T04:48:39.311Z,0.40
2018-09-24T04:51:14.810Z,0.30
2018-09-24T04:53:50.148Z,0.43
2018-09-24T04:56:25.310Z,0.30
2018-09-24T04:59:00.982Z,0.40
2018-09-24T05:01:36.845Z,0.30
2018-09-24T05:04:12.267Z,0.30
2018-09-24T05:06:47.551Z,0.30
2018-09-24T05:09:22.838Z,0.30
2018-09-24T05:11:58.164Z,0.30
2018-09-24T05:14:33.647Z,0.40
2018-09-24T05:17:09.174Z,0.60
2018-09-24T05:19:44.691Z,0.30
2018-09-24T05:22:20.280Z,0.30
2018-09-24T05:24:55.423Z,0.37
2018-09-24T05:27:30.825Z,0.40
2018-09-24T05:30:06.212Z,0.30
2018-09-24T05:32:41.718Z,0.43
2018-09-24T05:35:17.211Z,0.50
2018-09-24T05:37:52.623Z,0.40
2018-09-24T05:40:29.672Z,0.50
2018-09-24T05:43:05.715Z,0.37
2018-09-24T05:45:41.317Z,0.50
2018-09-24T05:48:16.899Z,0.53
2018-09-24T05:50:52.447Z,0.40
2018-09-24T05:53:27.994Z,0.50
2018-09-24T05:56:03.234Z,0.40
2018-09-24T05:58:38.857Z,0.30
2018-09-24T06:01:14.252Z,0.70
2018-09-24T06:03:49.740Z,0.60
2018-09-24T06:06:25.197Z,0.70
2018-09-24T06:09:00.499Z,6.70
2018-09-24T06:11:35.831Z,2.03
2018-09-24T06:14:11.473Z,0.90
2018-09-24T06:16:47.071Z,0.40
2018-09-24T06:19:22.640Z,0.50
2018-09-24T06:21:58.118Z,0.50
2018-09-24T06:24:33.444Z,0.40
2018-09-24T06:27:08.923Z,0.50
2018-09-24T06:29:44.259Z,0.33
2018-09-24T06:32:19.795Z,0.33
2018-09-24T06:34:55.311Z,0.30
2018-09-24T06:37:30.836Z,0.47
2018-09-24T06:40:06.219Z,0.30
2018-09-24T06:42:41.932Z,0.60
2018-09-24T06:45:17.297Z,0.60
2018-09-24T06:47:52.678Z,0.40
2018-09-24T06:50:28.155Z,0.30
2018-09-24T06:53:03.784Z,0.70
2018-09-24T06:55:39.372Z,0.70
2018-09-24T06:58:14.899Z,0.30
2018-09-24T07:00:50.507Z,0.77
2018-09-24T07:03:26.053Z,0.30
2018-09-24T07:06:01.372Z,0.40
2018-09-24T07:08:36.879Z,0.60
2018-09-24T07:11:12.291Z,0.43
2018-09-24T07:13:47.703Z,0.87
2018-09-24T07:16:23.148Z,0.60
2018-09-24T07:26:09.575Z,0.40
2018-09-24T07:28:45.232Z,0.40
2018-09-24T07:31:20.575Z,0.40
2018-09-24T07:33:55.797Z,0.50
2018-09-24T07:36:30.999Z,0.40
2018-09-24T07:39:06.551Z,0.30
2018-09-24T07:41:42.042Z,0.30
2018-09-24T07:44:18.008Z,0.40
2018-09-24T07:46:54.119Z,0.30
2018-09-24T07:49:29.508Z,0.37
2018-09-24T07:52:05.127Z,0.30
2018-09-24T07:54:40.334Z,0.90
2018-09-24T07:57:15.841Z,0.63
2018-09-24T07:59:51.171Z,0.53
2018-09-24T08:02:26.412Z,0.40
2018-09-24T08:05:01.648Z,0.40
2018-09-24T08:07:37.264Z,0.30
2018-09-24T08:10:12.346Z,0.30
2018-09-24T08:12:47.685Z,0.40
2018-09-24T08:15:22.731Z,0.40
2018-09-24T08:17:58.021Z,0.50
2018-09-24T08:20:33.219Z,0.30
2018-09-24T08:23:08.248Z,0.43
2018-09-24T08:25:43.763Z,0.60
2018-09-24T08:28:19.330Z,0.30
2018-09-24T08:30:54.735Z,0.30
2018-09-24T08:33:30.167Z,0.80
2018-09-24T08:36:05.688Z,0.97
2018-09-24T08:38:41.085Z,0.30
2018-09-24T08:41:16.381Z,0.33
2018-09-24T08:43:51.684Z,0.30
2018-09-24T08:46:26.925Z,0.50
2018-09-24T08:49:02.290Z,0.40
2018-09-24T08:51:37.621Z,0.40
2018-09-24T08:54:13.771Z,0.30
2018-09-24T08:56:49.217Z,0.30
2018-09-24T08:59:24.560Z,0.57
2018-09-24T09:02:00.102Z,0.60
2018-09-24T09:04:35.410Z,1.40
2018-09-24T09:07:10.897Z,0.83
2018-09-24T09:09:46.115Z,0.30
2018-09-24T09:12:21.428Z,0.60
2018-09-24T09:14:56.826Z,0.47
2018-09-24T09:17:32.239Z,0.40
2018-09-24T09:20:07.687Z,0.33
2018-09-24T09:22:43.262Z,0.33
2018-09-24T09:25:18.806Z,0.40
2018-09-24T09:27:54.334Z,0.40
2018-09-24T09:30:29.750Z,0.30
2018-09-24T09:33:05.044Z,0.30
2018-09-24T09:35:40.851Z,0.30
2018-09-24T09:38:16.135Z,0.33
2018-09-24T09:40:51.795Z,0.40
2018-09-24T09:43:27.163Z,0.30
2018-09-24T09:46:02.590Z,0.50
2018-09-24T09:48:37.984Z,0.30
2018-09-24T09:51:13.541Z,0.37
2018-09-24T09:53:49.282Z,0.40
2018-09-24T09:56:24.759Z,0.30
2018-09-24T09:59:00.365Z,0.50
2018-09-24T10:01:35.536Z,0.30
2018-09-24T10:04:10.754Z,0.40
2018-09-24T10:06:46.040Z,0.40
2018-09-24T10:09:21.372Z,0.50
2018-09-24T10:11:56.845Z,0.50
2018-09-24T10:14:32.477Z,1.23
2018-09-24T10:17:07.965Z,0.53
2018-09-24T10:19:43.600Z,0.70
2018-09-24T10:22:19.232Z,0.40
2018-09-24T10:24:54.662Z,0.70
2018-09-24T10:27:30.155Z,0.40
2018-09-24T10:30:05.426Z,0.50
2018-09-24T10:32:40.673Z,0.40
2018-09-24T10:35:16.181Z,0.60
2018-09-24T10:37:51.642Z,0.50
2018-09-24T10:40:27.553Z,0.60
2018-09-24T10:43:02.986Z,0.40
2018-09-24T10:45:38.380Z,0.50
2018-09-24T10:48:13.840Z,0.90
2018-09-24T10:50:49.058Z,0.70
2018-09-24T10:53:24.464Z,0.47
2018-09-24T10:55:59.992Z,0.50
2018-09-24T10:58:35.510Z,0.50
2018-09-24T11:01:10.991Z,0.80
2018-09-24T11:03:46.613Z,0.40
2018-09-24T11:06:21.956Z,0.60
2018-09-24T11:08:57.404Z,0.40
2018-09-24T11:11:33.034Z,0.40
2018-09-24T11:14:08.590Z,0.40
2018-09-24T11:16:44.155Z,0.50
2018-09-24T11:19:19.755Z,1.30
2018-09-24T11:21:55.057Z,0.70
2018-09-24T11:24:30.549Z,0.40
2018-09-24T11:27:05.921Z,0.40
2018-09-24T11:29:41.616Z,0.50
2018-09-24T11:32:17.091Z,0.33
2018-09-24T11:34:52.762Z,0.50
2018-09-24T11:37:28.189Z,0.50
2018-09-24T11:40:03.464Z,0.47
2018-09-24T11:42:38.737Z,0.60
2018-09-24T11:45:14.459Z,0.43
2018-09-24T11:47:49.994Z,0.60
2018-09-24T11:50:25.528Z,1.13
2018-09-24T11:53:00.703Z,1.00
2018-09-24T11:55:36.108Z,0.70
2018-09-24T11:58:11.847Z,0.53
2018-09-24T12:00:47.392Z,1.10
2018-09-24T12:03:22.959Z,0.60
2018-09-24T12:05:58.385Z,0.60
2018-09-24T12:08:33.659Z,0.60
2018-09-24T12:11:09.710Z,0.50
2018-09-24T12:13:45.278Z,0.77
2018-09-24T12:16:20.800Z,0.43
2018-09-24T12:18:56.448Z,0.70
2018-09-24T12:21:31.950Z,0.60
2018-09-24T12:24:07.247Z,0.83
2018-09-24T12:26:42.707Z,0.67
2018-09-24T12:29:18.226Z,0.60
2018-09-24T12:31:53.771Z,0.50
2018-09-24T12:34:28.802Z,0.77
2018-09-24T12:37:03.826Z,0.50
2018-09-24T12:39:39.071Z,0.83
2018-09-24T12:42:14.200Z,0.70
2018-09-24T12:44:49.584Z,0.60
2018-09-24T12:47:24.993Z,0.70
2018-09-24T12:50:00.335Z,0.60
2018-09-24T12:52:35.670Z,0.57
2018-09-24T12:55:11.188Z,0.67
2018-09-24T12:57:46.737Z,0.77
2018-09-24T13:00:22.104Z,2.10
2018-09-24T13:02:57.464Z,1.67
2018-09-24T13:05:32.730Z,0.60
2018-09-24T13:08:07.971Z,0.70
2018-09-24T13:10:43.603Z,1.00
2018-09-24T13:13:18.946Z,0.50
2018-09-24T13:15:54.287Z,0.80
2018-09-24T13:18:29.430Z,1.00
2018-09-24T13:21:04.564Z,1.27
2018-09-24T13:23:39.685Z,0.90
2018-09-24T13:26:14.754Z,0.70
2018-09-24T13:28:50.289Z,0.80
2018-09-24T13:31:25.623Z,0.70
2018-09-24T13:34:01.218Z,1.00
2018-09-24T13:36:36.348Z,1.50
2018-09-24T13:39:14.461Z,0.67
2018-09-24T13:41:50.349Z,0.70
2018-09-24T13:44:25.655Z,0.67
2018-09-24T13:47:00.956Z,0.90
2018-09-24T13:49:36.499Z,0.80
2018-09-24T13:52:11.744Z,0.80
2018-09-24T13:54:47.143Z,0.50
2018-09-24T13:57:22.311Z,0.80
2018-09-24T13:59:57.479Z,0.60
2018-09-24T14:02:32.343Z,0.70
2018-09-24T14:05:07.721Z,0.90
2018-09-24T14:07:42.817Z,0.63
2018-09-24T14:10:17.932Z,0.70
2018-09-24T14:12:53.018Z,0.57
2018-09-24T14:15:28.201Z,1.20
2018-09-24T14:18:03.594Z,0.83
2018-09-24T14:20:38.840Z,0.80
2018-09-24T14:23:14.198Z,1.50
2018-09-24T14:25:49.521Z,0.70
2018-09-24T14:28:24.831Z,0.90
2018-09-24T14:31:00.196Z,0.90
2018-09-24T14:33:35.513Z,0.73
2018-09-24T14:36:10.805Z,0.77
2018-09-24T14:38:46.140Z,0.60
2018-09-24T14:41:21.571Z,0.70
2018-09-24T14:43:56.679Z,0.93
2018-09-24T14:46:31.644Z,0.83
2018-09-24T14:49:06.652Z,0.87
2018-09-24T14:51:48.286Z,0.57
2018-09-24T14:54:23.636Z,0.60
2018-09-24T14:56:58.719Z,0.73
2018-09-24T14:59:33.791Z,1.10
2018-09-24T15:02:08.850Z,0.60
2018-09-24T15:04:43.855Z,1.00
2018-09-24T15:07:19.000Z,0.60
2018-09-24T15:09:53.905Z,1.83
2018-09-24T15:12:29.924Z,0.80
2018-09-24T15:15:04.941Z,0.83
2018-09-24T15:17:40.412Z,0.90
2018-09-24T15:20:15.863Z,0.73
2018-09-24T15:22:51.352Z,0.70
2018-09-24T15:25:26.726Z,0.70
2018-09-24T15:28:02.005Z,1.20
2018-09-24T15:30:37.231Z,0.77
2018-09-24T15:33:12.263Z,0.63
2018-09-24T15:35:47.331Z,0.63
2018-09-24T15:38:22.495Z,0.70
2018-09-24T15:40:58.086Z,0.80
2018-09-24T15:43:34.008Z,0.60
2018-09-24T15:46:09.563Z,1.00
2018-09-24T15:48:45.089Z,0.90
2018-09-24T15:51:20.743Z,1.00
2018-09-24T15:53:55.816Z,2.00
2018-09-24T15:56:30.914Z,0.97
2018-09-24T15:59:06.477Z,0.80
2018-09-24T16:01:41.743Z,1.00
2018-09-24T16:04:16.881Z,1.17
2018-09-24T16:06:52.012Z,1.00
2018-09-24T16:09:27.157Z,0.70
2018-09-24T16:12:02.162Z,0.90
2018-09-24T16:14:37.071Z,1.37
2018-09-24T16:17:12.548Z,1.10
2018-09-24T16:19:48.056Z,0.80
2018-09-24T16:22:23.517Z,0.77
2018-09-24T16:24:59.008Z,1.00
2018-09-24T16:27:34.494Z,0.73
2018-09-24T16:30:10.146Z,1.03
2018-09-24T16:32:45.413Z,0.80
2018-09-24T16:35:20.903Z,2.40
2018-09-24T16:37:56.035Z,1.53
2018-09-24T16:40:31.367Z,1.70
2018-09-24T16:43:06.961Z,2.03
2018-09-24T16:45:42.264Z,1.33
2018-09-24T16:48:17.339Z,0.80
2018-09-24T16:50:52.673Z,1.23
2018-09-24T16:53:27.984Z,1.40
2018-09-24T16:56:03.491Z,1.37
2018-09-24T16:58:39.153Z,1.07
2018-09-24T17:01:14.553Z,1.90
2018-09-24T17:03:49.662Z,1.50
2018-09-24T17:06:24.741Z,1.93
2018-09-24T17:08:59.863Z,1.40
2018-09-24T17:11:34.973Z,2.03
2018-09-24T17:14:10.056Z,1.23
2018-09-24T17:16:45.139Z,1.07
2018-09-24T17:19:20.381Z,1.30
2018-09-24T17:21:55.544Z,1.97
2018-09-24T17:24:30.856Z,1.83
2018-09-24T17:27:06.425Z,1.30
2018-09-24T17:29:41.706Z,1.40
2018-09-24T17:32:17.094Z,1.70
2018-09-24T17:34:52.603Z,2.23
2018-09-24T17:37:28.116Z,3.60
2018-09-24T17:40:03.266Z,9.80
2018-09-24T17:42:38.353Z,2.70
2018-09-24T17:45:13.491Z,1.10
2018-09-24T17:47:48.741Z,0.80
2018-09-24T17:50:23.850Z,0.80
2018-09-24T17:52:59.099Z,1.07
2018-09-24T17:55:34.024Z,0.93
2018-09-24T17:58:09.312Z,0.87
2018-09-24T18:00:44.799Z,1.37
2018-09-24T18:03:19.944Z,1.10
2018-09-24T18:05:55.251Z,0.80
2018-09-24T18:08:30.616Z,0.80
2018-09-24T18:11:05.823Z,0.93
2018-09-24T18:13:41.207Z,1.50
2018-09-24T18:16:16.645Z,1.90
2018-09-24T18:18:52.219Z,1.50
2018-09-24T18:21:29.438Z,1.50
2018-09-24T18:24:04.545Z,1.60
2018-09-24T18:26:40.281Z,1.80
2018-09-24T18:29:15.667Z,1.60
2018-09-24T18:31:51.157Z,1.83
2018-09-24T18:34:26.342Z,2.13
2018-09-24T18:37:02.212Z,1.60
2018-09-24T18:39:37.516Z,1.47
2018-09-24T18:42:12.607Z,2.73
2018-09-24T18:44:48.179Z,16.23
2018-09-24T18:47:23.460Z,7.20
2018-09-24T18:49:58.590Z,1.97
2018-09-24T18:52:33.707Z,1.67
2018-09-24T18:55:08.805Z,4.70
2018-09-24T18:57:44.146Z,4.43
2018-09-24T19:00:19.159Z,2.80
2018-09-24T19:02:54.277Z,1.80
2018-09-24T19:05:29.394Z,2.30
2018-09-24T19:08:04.597Z,2.77
2018-09-24T19:10:40.454Z,5.30
2018-09-24T19:13:15.827Z,5.90
2018-09-24T19:15:51.288Z,3.50
2018-09-24T19:18:26.754Z,7.23
2018-09-24T19:21:01.981Z,3.80
2018-09-24T19:23:37.260Z,2.60
2018-09-24T19:26:12.860Z,5.40
2018-09-24T19:28:48.428Z,4.70
2018-09-24T19:31:24.063Z,2.63
2018-09-24T19:33:59.388Z,1.90
2018-09-24T19:36:34.940Z,1.97
2018-09-24T19:39:12.312Z,3.37
2018-09-24T19:41:48.073Z,2.93
2018-09-24T19:44:23.467Z,3.23
2018-09-24T19:46:58.728Z,2.90
2018-09-24T19:49:34.277Z,6.57
2018-09-24T19:52:09.830Z,7.43
2018-09-24T19:54:45.570Z,3.27
2018-09-24T19:57:21.119Z,2.47
2018-09-24T19:59:56.502Z,2.30
2018-09-24T20:02:32.071Z,2.03
2018-09-24T20:05:07.304Z,2.60
2018-09-24T20:07:42.962Z,1.80
2018-09-24T20:10:18.404Z,2.00
2018-09-24T20:12:53.677Z,2.20
2018-09-24T20:15:28.790Z,2.43
2018-09-24T20:18:04.027Z,2.90
2018-09-24T20:20:39.248Z,3.73
2018-09-24T20:23:14.280Z,4.40
2018-09-24T20:25:49.285Z,3.30
2018-09-24T20:28:24.378Z,2.17
2018-09-24T20:30:59.595Z,1.50
2018-09-24T20:33:34.718Z,1.83
2018-09-24T20:36:09.845Z,2.20
2018-09-24T20:38:45.774Z,1.70
2018-09-24T20:41:20.971Z,2.03
2018-09-24T20:43:56.921Z,2.20
2018-09-24T20:46:32.006Z,2.10
2018-09-24T20:49:07.244Z,6.67
2018-09-24T20:51:42.425Z,2.47
2018-09-24T20:54:17.578Z,4.70
2018-09-24T20:56:52.672Z,4.90
2018-09-24T20:59:27.816Z,2.90
2018-09-24T21:02:02.955Z,4.40
2018-09-24T21:04:37.988Z,3.40
2018-09-24T21:07:13.254Z,7.00
2018-09-24T21:09:48.370Z,2.87
2018-09-24T21:12:23.453Z,2.93
2018-09-24T21:14:58.442Z,2.07
2018-09-24T21:17:33.489Z,2.13
2018-09-24T21:20:08.612Z,2.10
2018-09-24T21:22:43.799Z,1.53
2018-09-24T21:25:18.906Z,5.50
2018-09-24T21:27:53.847Z,3.30
2018-09-24T21:30:28.987Z,2.50
2018-09-24T21:33:04.209Z,2.00
2018-09-24T21:35:39.400Z,1.83
2018-09-24T21:38:14.538Z,2.50
2018-09-24T21:40:49.669Z,2.43
2018-09-24T21:43:24.694Z,2.17
2018-09-24T21:45:59.801Z,2.47
2018-09-24T21:48:35.049Z,2.57
2018-09-24T21:51:10.214Z,2.30
2018-09-24T21:53:45.576Z,2.27
2018-09-24T21:56:21.365Z,2.50
2018-09-24T21:58:56.470Z,3.00
2018-09-24T22:01:31.563Z,5.70
2018-09-24T22:04:06.537Z,3.10
2018-09-24T22:06:41.619Z,2.63
2018-09-24T22:09:16.578Z,3.13
2018-09-24T22:11:51.588Z,4.27
2018-09-24T22:14:26.746Z,2.50
2018-09-24T22:17:01.764Z,1.77
2018-09-24T22:19:36.766Z,2.60
2018-09-24T22:22:11.771Z,2.77
2018-09-24T22:24:46.906Z,4.93
2018-09-24T22:27:22.085Z,2.53
2018-09-24T22:29:57.150Z,4.10
2018-09-24T22:32:32.097Z,3.70
2018-09-24T22:35:07.074Z,3.37
2018-09-24T22:37:42.246Z,3.27
2018-09-24T22:40:17.392Z,2.40
2018-09-24T22:42:52.472Z,2.93
2018-09-24T22:45:27.577Z,3.83
2018-09-24T22:48:02.643Z,3.10
2018-09-24T22:50:37.737Z,2.20
2018-09-24T22:53:12.711Z,2.03
2018-09-24T22:55:47.709Z,3.93
2018-09-24T22:58:22.784Z,2.03
2018-09-24T23:00:57.896Z,1.80
2018-09-24T23:03:33.132Z,4.60
2018-09-24T23:06:08.165Z,2.87
2018-09-24T23:08:43.130Z,2.30
2018-09-24T23:11:18.027Z,2.13
2018-09-24T23:13:53.070Z,2.50
2018-09-24T23:16:28.095Z,2.50
2018-09-24T23:19:03.160Z,4.00
2018-09-24T23:21:38.281Z,2.90
2018-09-24T23:24:13.512Z,3.80
2018-09-24T23:26:48.488Z,2.00
2018-09-24T23:29:23.475Z,2.50
2018-09-24T23:31:58.607Z,2.43
2018-09-24T23:34:33.761Z,2.43
2018-09-24T23:37:08.870Z,1.57
2018-09-24T23:39:43.966Z,2.13
2018-09-24T23:42:19.037Z,2.10
2018-09-24T23:44:54.071Z,2.40
2018-09-24T23:47:29.163Z,2.40
2018-09-24T23:50:04.225Z,2.37
2018-09-24T23:52:39.127Z,2.00
2018-09-24T23:55:14.465Z,2.30
2018-09-24T23:57:49.606Z,2.50
